Time,TemperatureF,DewpointF,PressureIn,WindDirection,WindDirectionDegrees,WindSpeedMPH,WindSpeedGustMPH,Humidity,HourlyPrecipIn,Conditions,Clouds,dailyrainin,SoftwareType,DateUTC
2013-07-31 00:04:00,83.8,68.9,29.93,South,184,1.0,1.0,61,0.00,,---,0.00,VWS V14.01,2013-07-31 05:04:00,
2013-07-31 00:09:00,82.8,68.0,29.93,South,184,0.0,0.0,61,0.00,,---,0.00,VWS V14.01,2013-07-31 05:09:00,
2013-07-31 00:14:00,82.0,68.2,29.93,South,184,0.0,0.0,63,0.00,,---,0.00,VWS V14.01,2013-07-31 05:14:00,
2013-07-31 00:19:00,81.7,69.2,29.93,South,184,0.0,0.0,66,0.00,,---,0.00,VWS V14.01,2013-07-31 05:19:00,
2013-07-31 00:24:00,81.1,69.6,29.93,South,184,0.0,0.0,68,0.00,,---,0.00,VWS V14.01,2013-07-31 05:24:00,
2013-07-31 06:16:00,78.7,69.3,29.97,South,175,0.0,2.0,73,0.00,,---,0.00,VWS V14.01,2013-07-31 11:16:00,
2013-07-31 06:21:00,78.6,69.6,29.98,South,189,2.0,2.0,74,0.00,,---,0.00,VWS V14.01,2013-07-31 11:21:00,
2013-07-31 06:26:00,78.4,69.4,29.98,South,184,1.0,4.0,74,0.00,,---,0.00,VWS V14.01,2013-07-31 11:26:00,
2013-07-31 06:31:00,78.4,69.4,29.98,South,176,0.0,4.0,74,0.00,,---,0.00,VWS V14.01,2013-07-31 11:31:00,
2013-07-31 06:37:00,78.4,69.8,29.98,South,186,2.0,6.0,75,0.00,,---,0.00,VWS V14.01,2013-07-31 11:37:00,
2013-07-31 06:42:00,78.5,69.9,29.98,South,171,3.0,8.0,75,0.00,,---,0.00,VWS V14.01,2013-07-31 11:42:00,
2013-07-31 06:47:00,78.6,70.0,29.98,SSE,164,0.0,3.0,75,0.00,,---,0.00,VWS V14.01,2013-07-31 11:47:00,
2013-07-31 06:52:00,78.6,70.0,29.99,South,175,2.0,2.0,75,0.00,,---,0.00,VWS V14.01,2013-07-31 11:52:00,
2013-07-31 06:57:00,78.5,69.9,29.99,South,186,5.0,5.0,75,0.00,,---,0.00,VWS V14.01,2013-07-31 11:57:00,
2013-07-31 07:02:00,78.5,70.3,29.99,South,171,1.0,2.0,76,0.00,,---,0.00,VWS V14.01,2013-07-31 12:02:00,
2013-07-31 07:07:00,78.6,70.4,29.99,South,182,2.0,4.0,76,0.00,,---,0.00,VWS V14.01,2013-07-31 12:07:00,
2013-07-31 07:13:00,78.6,70.4,29.99,SSW,192,0.0,5.0,76,0.00,,---,0.00,VWS V14.01,2013-07-31 12:13:00,
2013-07-31 07:18:00,78.7,70.5,29.99,South,177,2.0,5.0,76,0.00,,---,0.00,VWS V14.01,2013-07-31 12:18:00,
2013-07-31 07:23:00,78.8,70.6,29.99,South,174,0.0,6.0,76,0.00,,---,0.00,VWS V14.01,2013-07-31 12:23:00,
2013-07-31 07:28:00,78.9,70.7,29.99,South,189,0.0,5.0,76,0.00,,---,0.00,VWS V14.01,2013-07-31 12:28:00,
2013-07-31 07:33:00,79.3,70.7,29.99,South,177,3.0,7.0,75,0.00,,---,0.00,VWS V14.01,2013-07-31 12:33:00,
2013-07-31 07:38:00,79.3,71.1,29.99,SSW,196,0.0,6.0,76,0.00,,---,0.00,VWS V14.01,2013-07-31 12:38:00,
2013-07-31 07:43:00,79.4,71.2,29.99,South,190,3.0,6.0,76,0.00,,---,0.00,VWS V14.01,2013-07-31 12:43:00,
2013-07-31 07:48:00,79.4,71.2,29.99,SSW,200,1.0,4.0,76,0.00,,---,0.00,VWS V14.01,2013-07-31 12:48:00,
2013-07-31 07:53:00,79.6,71.4,29.99,SSE,155,3.0,5.0,76,0.00,,---,0.00,VWS V14.01,2013-07-31 12:53:00,
2013-07-31 07:58:00,79.9,71.3,29.99,SSW,211,7.0,7.0,75,0.00,,---,0.00,VWS V14.01,2013-07-31 12:58:00,
2013-07-31 08:03:00,80.1,71.5,29.99,South,185,6.0,6.0,75,0.00,,---,0.00,VWS V14.01,2013-07-31 13:03:00,
2013-07-31 08:08:00,80.3,71.7,29.99,SSW,208,0.0,6.0,75,0.00,,---,0.00,VWS V14.01,2013-07-31 13:08:00,
2013-07-31 08:13:00,80.6,71.9,29.99,SW,232,8.0,8.0,75,0.00,,---,0.00,VWS V14.01,2013-07-31 13:13:00,
2013-07-31 08:18:00,80.7,72.0,30.00,South,190,1.0,6.0,75,0.00,,---,0.00,VWS V14.01,2013-07-31 13:18:00,
2013-07-31 08:24:00,80.9,71.8,30.00,SW,215,7.0,9.0,74,0.00,,---,0.00,VWS V14.01,2013-07-31 13:24:00,
2013-07-31 08:29:00,81.0,71.9,30.00,SSW,203,2.0,8.0,74,0.00,,---,0.00,VWS V14.01,2013-07-31 13:29:00,
2013-07-31 08:34:00,81.2,72.1,30.00,SSW,196,1.0,8.0,74,0.00,,---,0.00,VWS V14.01,2013-07-31 13:34:00,
2013-07-31 08:39:00,81.3,72.2,30.00,South,188,6.0,10.0,74,0.00,,---,0.00,VWS V14.01,2013-07-31 13:39:00,
2013-07-31 08:44:00,81.2,72.5,30.00,South,169,0.0,7.0,75,0.00,,---,0.00,VWS V14.01,2013-07-31 13:44:00,
2013-07-31 08:49:00,81.0,71.9,30.01,South,186,1.0,9.0,74,0.00,,---,0.00,VWS V14.01,2013-07-31 13:49:00,
2013-07-31 08:54:00,81.0,71.9,30.01,SSW,204,5.0,12.0,74,0.00,,---,0.00,VWS V14.01,2013-07-31 13:54:00,
2013-07-31 08:59:00,81.1,72.4,30.01,SSW,195,5.0,6.0,75,0.00,,---,0.00,VWS V14.01,2013-07-31 13:59:00,
2013-07-31 09:04:00,81.1,72.4,30.01,SSW,209,5.0,7.0,75,0.00,,---,0.00,VWS V14.01,2013-07-31 14:04:00,
2013-07-31 09:09:00,81.2,72.5,30.01,South,182,3.0,5.0,75,0.00,,---,0.00,VWS V14.01,2013-07-31 14:09:00,
2013-07-31 09:14:00,81.5,72.4,30.01,SSW,199,5.0,11.0,74,0.00,,---,0.00,VWS V14.01,2013-07-31 14:14:00,
2013-07-31 09:20:00,81.6,72.5,30.01,South,182,6.0,7.0,74,0.00,,---,0.00,VWS V14.01,2013-07-31 14:20:00,
2013-07-31 09:25:00,81.8,72.7,30.00,South,176,7.0,10.0,74,0.00,,---,0.00,VWS V14.01,2013-07-31 14:25:00,
2013-07-31 09:30:00,82.0,72.5,30.00,SSW,212,4.0,7.0,73,0.00,,---,0.00,VWS V14.01,2013-07-31 14:30:00,
2013-07-31 09:35:00,82.4,73.3,30.01,South,180,5.0,7.0,74,0.00,,---,0.00,VWS V14.01,2013-07-31 14:35:00,
2013-07-31 09:40:00,83.1,73.1,30.01,SW,218,4.0,8.0,72,0.00,,---,0.00,VWS V14.01,2013-07-31 14:40:00,
2013-07-31 09:45:00,83.8,73.0,30.01,South,184,2.0,6.0,70,0.00,,---,0.00,VWS V14.01,2013-07-31 14:45:00,
2013-07-31 09:50:00,83.8,73.0,30.00,SSW,195,7.0,8.0,70,0.00,,---,0.00,VWS V14.01,2013-07-31 14:50:00,
2013-07-31 09:55:00,84.3,73.5,30.00,SSW,195,4.0,11.0,70,0.00,,---,0.00,VWS V14.01,2013-07-31 14:55:00,
2013-07-31 10:00:00,84.7,73.4,30.00,SW,215,4.0,7.0,69,0.00,,---,0.00,VWS V14.01,2013-07-31 15:00:00,
2013-07-31 10:05:00,85.1,72.9,30.00,SSW,196,5.0,10.0,67,0.00,,---,0.00,VWS V14.01,2013-07-31 15:05:00,
2013-07-31 10:10:00,85.0,72.8,30.00,South,184,7.0,10.0,67,0.00,,---,0.00,VWS V14.01,2013-07-31 15:10:00,
2013-07-31 10:15:00,85.1,73.4,30.00,South,173,6.0,10.0,68,0.00,,---,0.00,VWS V14.01,2013-07-31 15:15:00,
2013-07-31 10:21:00,85.2,73.0,30.00,South,186,14.0,14.0,67,0.00,,---,0.00,VWS V14.01,2013-07-31 15:21:00,
2013-07-31 10:26:00,85.5,72.8,30.00,South,176,4.0,10.0,66,0.00,,---,0.00,VWS V14.01,2013-07-31 15:26:00,
2013-07-31 10:31:00,85.9,72.8,30.00,SSW,208,2.0,8.0,65,0.00,,---,0.00,VWS V14.01,2013-07-31 15:31:00,
2013-07-31 10:36:00,86.7,73.1,30.00,South,179,1.0,11.0,64,0.00,,---,0.00,VWS V14.01,2013-07-31 15:36:00,
2013-07-31 10:41:00,87.0,72.9,30.00,SSW,202,2.0,11.0,63,0.00,,---,0.00,VWS V14.01,2013-07-31 15:41:00,
2013-07-31 10:46:00,87.2,72.6,30.00,SSW,197,11.0,11.0,62,0.00,,---,0.00,VWS V14.01,2013-07-31 15:46:00,
2013-07-31 10:51:00,87.4,72.8,30.00,SW,221,6.0,13.0,62,0.00,,---,0.00,VWS V14.01,2013-07-31 15:51:00,
2013-07-31 10:56:00,87.8,72.7,29.99,WSW,238,5.0,11.0,61,0.00,,---,0.00,VWS V14.01,2013-07-31 15:56:00,
2013-07-31 11:01:00,88.1,72.5,29.99,South,188,12.0,12.0,60,0.00,,---,0.00,VWS V14.01,2013-07-31 16:01:00,
2013-07-31 11:06:00,88.1,72.5,29.99,SSW,209,2.0,8.0,60,0.00,,---,0.00,VWS V14.01,2013-07-31 16:06:00,
2013-07-31 11:12:00,88.5,72.3,29.99,SSW,199,7.0,10.0,59,0.00,,---,0.00,VWS V14.01,2013-07-31 16:12:00,
2013-07-31 11:17:00,89.0,73.3,29.99,South,178,8.0,11.0,60,0.00,,---,0.00,VWS V14.01,2013-07-31 16:17:00,
2013-07-31 11:22:00,89.4,72.7,29.99,SSE,161,8.0,10.0,58,0.00,,---,0.00,VWS V14.01,2013-07-31 16:22:00,
2013-07-31 11:27:00,89.6,72.4,29.99,SE,144,8.0,12.0,57,0.00,,---,0.00,VWS V14.01,2013-07-31 16:27:00,
2013-07-31 11:32:00,89.7,72.4,29.99,WSW,240,3.0,8.0,57,0.00,,---,0.00,VWS V14.01,2013-07-31 16:32:00,
2013-07-31 11:37:00,89.9,72.1,29.99,South,180,5.0,9.0,56,0.00,,---,0.00,VWS V14.01,2013-07-31 16:37:00,
2013-07-31 11:43:00,90.2,72.4,29.99,South,179,8.0,12.0,56,0.00,,---,0.00,VWS V14.01,2013-07-31 16:43:00,
2013-07-31 11:48:00,90.5,72.1,29.99,SW,219,4.0,13.0,55,0.00,,---,0.00,VWS V14.01,2013-07-31 16:48:00,
2013-07-31 11:53:00,91.2,72.2,29.98,WSW,240,5.0,9.0,54,0.00,,---,0.00,VWS V14.01,2013-07-31 16:53:00,
2013-07-31 11:58:00,91.8,72.8,29.98,West,274,7.0,11.0,54,0.00,,---,0.00,VWS V14.01,2013-07-31 16:58:00,
2013-07-31 12:03:00,92.7,72.5,29.98,West,259,5.0,10.0,52,0.00,,---,0.00,VWS V14.01,2013-07-31 17:03:00,
2013-07-31 12:08:00,92.9,72.7,29.98,SW,232,6.0,7.0,52,0.00,,---,0.00,VWS V14.01,2013-07-31 17:08:00,
2013-07-31 12:13:00,93.5,72.7,29.98,SSW,200,4.0,11.0,51,0.00,,---,0.00,VWS V14.01,2013-07-31 17:13:00,
2013-07-31 12:18:00,93.7,73.4,29.97,SW,217,7.0,9.0,52,0.00,,---,0.00,VWS V14.01,2013-07-31 17:18:00,
2013-07-31 12:23:00,94.1,72.0,29.97,WNW,285,6.0,12.0,49,0.00,,---,0.00,VWS V14.01,2013-07-31 17:23:00,
2013-07-31 12:28:00,93.8,72.4,29.97,SSW,211,7.0,10.0,50,0.00,,---,0.00,VWS V14.01,2013-07-31 17:28:00,
2013-07-31 12:33:00,94.0,72.5,29.97,WSW,244,2.0,9.0,50,0.00,,---,0.00,VWS V14.01,2013-07-31 17:33:00,
2013-07-31 12:39:00,95.0,71.6,29.97,West,263,1.0,8.0,47,0.00,,---,0.00,VWS V14.01,2013-07-31 17:39:00,
2013-07-31 12:44:00,95.4,72.0,29.97,SW,220,9.0,10.0,47,0.00,,---,0.00,VWS V14.01,2013-07-31 17:44:00,
2013-07-31 12:49:00,96.1,72.0,29.97,WSW,257,4.0,10.0,46,0.00,,---,0.00,VWS V14.01,2013-07-31 17:49:00,
2013-07-31 12:54:00,96.1,72.0,29.97,WSW,250,5.0,9.0,46,0.00,,---,0.00,VWS V14.01,2013-07-31 17:54:00,
2013-07-31 12:59:00,95.9,71.8,29.97,SSW,201,4.0,8.0,46,0.00,,---,0.00,VWS V14.01,2013-07-31 17:59:00,
2013-07-31 13:04:00,96.2,72.1,29.97,West,269,7.0,9.0,46,0.00,,---,0.00,VWS V14.01,2013-07-31 18:04:00,
2013-07-31 13:09:00,96.7,71.9,29.97,WSW,239,2.0,9.0,45,0.00,,---,0.00,VWS V14.01,2013-07-31 18:09:00,
2013-07-31 13:14:00,96.7,71.2,29.96,SW,232,1.0,6.0,44,0.00,,---,0.00,VWS V14.01,2013-07-31 18:14:00,
2013-07-31 13:19:00,95.8,70.4,29.96,SSW,195,5.0,9.0,44,0.00,,---,0.00,VWS V14.01,2013-07-31 18:19:00,
2013-07-31 13:24:00,95.8,71.7,29.96,SW,225,2.0,7.0,46,0.00,,---,0.00,VWS V14.01,2013-07-31 18:24:00,
2013-07-31 13:30:00,96.7,71.9,29.96,WNW,295,7.0,11.0,45,0.00,,---,0.00,VWS V14.01,2013-07-31 18:30:00,
2013-07-31 13:35:00,97.3,71.1,29.96,SW,232,7.0,9.0,43,0.00,,---,0.00,VWS V14.01,2013-07-31 18:35:00,
2013-07-31 13:40:00,97.6,71.3,29.95,SSW,202,7.0,8.0,43,0.00,,---,0.00,VWS V14.01,2013-07-31 18:40:00,
2013-07-31 13:45:00,97.2,71.0,29.95,SW,227,5.0,10.0,43,0.00,,---,0.00,VWS V14.01,2013-07-31 18:45:00,
2013-07-31 13:50:00,97.9,72.3,29.95,West,259,1.0,4.0,44,0.00,,---,0.00,VWS V14.01,2013-07-31 18:50:00,
2013-07-31 13:55:00,97.8,72.2,29.95,SSW,192,2.0,5.0,44,0.00,,---,0.00,VWS V14.01,2013-07-31 18:55:00,
2013-07-31 14:00:00,97.8,71.5,29.95,SSW,205,3.0,4.0,43,0.00,,---,0.00,VWS V14.01,2013-07-31 19:00:00,
2013-07-31 14:05:00,97.2,71.0,29.94,South,180,2.0,7.0,43,0.00,,---,0.00,VWS V14.01,2013-07-31 19:05:00,
2013-07-31 14:10:00,96.9,71.4,29.94,South,184,2.0,6.0,44,0.00,,---,0.00,VWS V14.01,2013-07-31 19:10:00,
2013-07-31 14:15:00,97.0,70.8,29.94,WSW,242,2.0,7.0,43,0.00,,---,0.00,VWS V14.01,2013-07-31 19:15:00,
2013-07-31 14:20:00,97.3,71.1,29.94,SSW,210,6.0,9.0,43,0.00,,---,0.00,VWS V14.01,2013-07-31 19:20:00,
2013-07-31 14:25:00,97.4,71.2,29.93,SW,223,2.0,6.0,43,0.00,,---,0.00,VWS V14.01,2013-07-31 19:25:00,
2013-07-31 14:31:00,97.2,70.3,29.93,South,179,4.0,7.0,42,0.00,,---,0.00,VWS V14.01,2013-07-31 19:31:00,
2013-07-31 14:36:00,97.2,71.0,29.93,SSE,164,6.0,6.0,43,0.00,,---,0.00,VWS V14.01,2013-07-31 19:36:00,
2013-07-31 14:41:00,97.6,71.3,29.93,WSW,252,0.0,7.0,43,0.00,,---,0.00,VWS V14.01,2013-07-31 19:41:00,
2013-07-31 14:46:00,98.2,71.2,29.93,SSW,198,0.0,1.0,42,0.00,,---,0.00,VWS V14.01,2013-07-31 19:46:00,
2013-07-31 14:52:00,98.3,70.6,29.93,West,262,3.0,6.0,41,0.00,,---,0.00,VWS V14.01,2013-07-31 19:52:00,
2013-07-31 14:57:00,98.3,71.3,29.92,SSW,204,3.0,8.0,42,0.00,,---,0.00,VWS V14.01,2013-07-31 19:57:00,
2013-07-31 15:02:00,98.4,69.9,29.92,South,186,1.0,4.0,40,0.00,,---,0.00,VWS V14.01,2013-07-31 20:02:00,
2013-07-31 15:07:00,99.2,71.4,29.92,WNW,287,0.0,5.0,41,0.00,,---,0.00,VWS V14.01,2013-07-31 20:07:00,
2013-07-31 15:12:00,100.2,73.0,29.92,WSW,252,0.0,2.0,42,0.00,,---,0.00,VWS V14.01,2013-07-31 20:12:00,
2013-07-31 15:17:00,100.6,70.4,29.92,SW,223,4.0,6.0,38,0.00,,---,0.00,VWS V14.01,2013-07-31 20:17:00,
2013-07-31 15:22:00,100.5,70.3,29.91,WSW,248,5.0,6.0,38,0.00,,---,0.00,VWS V14.01,2013-07-31 20:22:00,
2013-07-31 15:27:00,101.0,70.7,29.91,West,267,6.0,7.0,38,0.00,,---,0.00,VWS V14.01,2013-07-31 20:27:00,
2013-07-31 15:32:00,101.5,71.2,29.91,West,260,2.0,7.0,38,0.00,,---,0.00,VWS V14.01,2013-07-31 20:32:00,
2013-07-31 15:38:00,100.7,71.2,29.91,SW,222,2.0,5.0,39,0.00,,---,0.00,VWS V14.01,2013-07-31 20:38:00,
2013-07-31 15:43:00,100.2,70.0,29.91,SSW,213,2.0,6.0,38,0.00,,---,0.00,VWS V14.01,2013-07-31 20:43:00,
2013-07-31 15:48:00,99.4,69.3,29.91,SSE,148,2.0,4.0,38,0.00,,---,0.00,VWS V14.01,2013-07-31 20:48:00,
2013-07-31 15:53:00,98.8,70.3,29.91,SSE,168,6.0,7.0,40,0.00,,---,0.00,VWS V14.01,2013-07-31 20:53:00,
2013-07-31 15:58:00,99.3,70.7,29.90,SSE,157,4.0,5.0,40,0.00,,---,0.00,VWS V14.01,2013-07-31 20:58:00,
2013-07-31 16:03:00,99.4,70.1,29.90,South,169,3.0,4.0,39,0.00,,---,0.00,VWS V14.01,2013-07-31 21:03:00,
2013-07-31 16:08:00,99.2,69.9,29.90,SE,146,0.0,6.0,39,0.00,,---,0.00,VWS V14.01,2013-07-31 21:08:00,
2013-07-31 16:13:00,98.9,70.4,29.90,SE,144,3.0,4.0,40,0.00,,---,0.00,VWS V14.01,2013-07-31 21:13:00,
2013-07-31 16:18:00,99.0,69.7,29.89,SE,144,2.0,3.0,39,0.00,,---,0.00,VWS V14.01,2013-07-31 21:18:00,
2013-07-31 16:23:00,98.8,72.4,29.89,East,82,3.0,5.0,43,0.00,,---,0.00,VWS V14.01,2013-07-31 21:23:00,
2013-07-31 16:28:00,99.2,69.9,29.89,SSW,195,0.0,4.0,39,0.00,,---,0.00,VWS V14.01,2013-07-31 21:28:00,
2013-07-31 16:33:00,100.0,70.6,29.88,South,187,0.0,2.0,39,0.00,,---,0.00,VWS V14.01,2013-07-31 21:33:00,
2013-07-31 16:38:00,99.7,70.3,29.89,East,101,1.0,5.0,39,0.00,,---,0.00,VWS V14.01,2013-07-31 21:38:00,
2013-07-31 16:44:00,99.2,70.7,29.88,East,101,0.0,5.0,40,0.00,,---,0.00,VWS V14.01,2013-07-31 21:44:00,
2013-07-31 16:49:00,99.4,71.6,29.88,East,95,2.0,5.0,41,0.00,,---,0.00,VWS V14.01,2013-07-31 21:49:00,
2013-07-31 16:54:00,99.8,71.9,29.88,NNW,339,3.0,6.0,41,0.00,,---,0.00,VWS V14.01,2013-07-31 21:54:00,
2013-07-31 16:59:00,100.1,72.2,29.87,NNE,19,2.0,4.0,41,0.00,,---,0.00,VWS V14.01,2013-07-31 21:59:00,
2013-07-31 17:04:00,99.6,70.3,29.87,NNE,19,0.0,3.0,39,0.00,,---,0.00,VWS V14.01,2013-07-31 22:04:00,
2013-07-31 17:09:00,99.3,70.7,29.87,NE,44,1.0,5.0,40,0.00,,---,0.00,VWS V14.01,2013-07-31 22:09:00,
2013-07-31 17:14:00,99.1,69.8,29.87,NE,44,1.0,1.0,39,0.00,,---,0.00,VWS V14.01,2013-07-31 22:14:00,
2013-07-31 17:19:00,99.3,70.7,29.87,NE,44,0.0,0.0,40,0.00,,---,0.00,VWS V14.01,2013-07-31 22:19:00,
2013-07-31 17:24:00,99.4,70.8,29.86,East,89,3.0,3.0,40,0.00,,---,0.00,VWS V14.01,2013-07-31 22:24:00,
2013-07-31 17:29:00,99.1,72.7,29.86,NE,46,3.0,5.0,43,0.00,,---,0.00,VWS V14.01,2013-07-31 22:29:00,
2013-07-31 17:34:00,98.2,73.2,29.86,NE,53,6.0,8.0,45,0.00,,---,0.00,VWS V14.01,2013-07-31 22:34:00,
2013-07-31 17:40:00,97.9,70.9,29.86,ENE,57,5.0,9.0,42,0.00,,---,0.00,VWS V14.01,2013-07-31 22:40:00,
2013-07-31 17:45:00,97.7,71.4,29.86,NE,55,6.0,9.0,43,0.00,,---,0.00,VWS V14.01,2013-07-31 22:45:00,
2013-07-31 17:50:00,97.4,71.2,29.86,ENE,74,3.0,7.0,43,0.00,,---,0.00,VWS V14.01,2013-07-31 22:50:00,
2013-07-31 17:55:00,97.1,72.2,29.85,East,80,6.0,7.0,45,0.00,,---,0.00,VWS V14.01,2013-07-31 22:55:00,
2013-07-31 18:00:00,97.0,71.5,29.85,East,86,2.0,5.0,44,0.00,,---,0.00,VWS V14.01,2013-07-31 23:00:00,
2013-07-31 18:05:00,96.9,72.1,29.85,East,84,2.0,3.0,45,0.00,,---,0.00,VWS V14.01,2013-07-31 23:05:00,
2013-07-31 18:10:00,96.8,72.6,29.85,East,98,2.0,5.0,46,0.00,,---,0.00,VWS V14.01,2013-07-31 23:10:00,
2013-07-31 18:15:00,96.5,72.3,29.85,ESE,102,2.0,3.0,46,0.00,,---,0.00,VWS V14.01,2013-07-31 23:15:00,
2013-07-31 18:20:00,96.2,73.3,29.85,ESE,102,3.0,3.0,48,0.00,,---,0.00,VWS V14.01,2013-07-31 23:20:00,
2013-07-31 18:25:00,95.9,72.4,29.85,ESE,107,2.0,5.0,47,0.00,,---,0.00,VWS V14.01,2013-07-31 23:25:00,
2013-07-31 18:31:00,95.6,71.5,29.85,SE,146,2.0,3.0,46,0.00,,---,0.00,VWS V14.01,2013-07-31 23:31:00,
2013-07-31 18:36:00,95.4,72.0,29.85,SE,146,2.0,3.0,47,0.00,,---,0.00,VWS V14.01,2013-07-31 23:36:00,
2013-07-31 18:41:00,95.5,72.1,29.85,SE,140,4.0,4.0,47,0.00,,---,0.00,VWS V14.01,2013-07-31 23:41:00,
2013-07-31 18:46:00,95.6,72.2,29.85,SE,134,2.0,3.0,47,0.00,,---,0.00,VWS V14.01,2013-07-31 23:46:00,
2013-07-31 18:51:00,95.8,73.6,29.85,SE,134,0.0,1.0,49,0.00,,---,0.00,VWS V14.01,2013-07-31 23:51:00,
2013-07-31 18:56:00,95.8,74.2,29.86,SE,134,2.0,2.0,50,0.00,,---,0.00,VWS V14.01,2013-07-31 23:56:00,
2013-07-31 19:01:00,95.8,73.0,29.86,SE,134,1.0,2.0,48,0.00,,---,0.00,VWS V14.01,2013-08-01 00:01:00,
2013-07-31 19:06:00,95.7,73.5,29.85,SE,134,0.0,1.0,49,0.00,,---,0.00,VWS V14.01,2013-08-01 00:06:00,
2013-07-31 19:12:00,95.5,72.1,29.85,SE,134,0.0,2.0,47,0.00,,---,0.00,VWS V14.01,2013-08-01 00:12:00,
2013-07-31 19:17:00,95.2,71.8,29.85,SE,134,0.0,1.0,47,0.00,,---,0.00,VWS V14.01,2013-08-01 00:17:00,
2013-07-31 19:22:00,95.1,72.3,29.85,SE,134,0.0,0.0,48,0.00,,---,0.00,VWS V14.01,2013-08-01 00:22:00,
2013-07-31 19:27:00,95.0,73.5,29.85,SE,134,0.0,0.0,50,0.00,,---,0.00,VWS V14.01,2013-08-01 00:27:00,
2013-07-31 19:32:00,94.8,73.9,29.86,SE,134,0.0,0.0,51,0.00,,---,0.00,VWS V14.01,2013-08-01 00:32:00,
2013-07-31 19:37:00,94.6,73.7,29.86,SE,134,0.0,0.0,51,0.00,,---,0.00,VWS V14.01,2013-08-01 00:37:00,
2013-07-31 19:42:00,94.5,73.0,29.86,SE,134,0.0,0.0,50,0.00,,---,0.00,VWS V14.01,2013-08-01 00:42:00,
2013-07-31 19:47:00,94.3,72.8,29.86,SE,134,0.0,0.0,50,0.00,,---,0.00,VWS V14.01,2013-08-01 00:47:00,
2013-07-31 19:52:00,94.1,72.0,29.87,SE,134,0.0,0.0,49,0.00,,---,0.00,VWS V14.01,2013-08-01 00:52:00,
2013-07-31 19:57:00,94.0,74.8,29.87,SE,134,0.0,1.0,54,0.00,,---,0.00,VWS V14.01,2013-08-01 00:57:00,
2013-07-31 20:03:00,93.3,75.3,29.87,SE,132,0.0,0.0,56,0.00,,---,0.00,VWS V14.01,2013-08-01 01:03:00,
2013-07-31 20:08:00,92.0,75.6,29.87,NNE,22,0.0,0.0,59,0.00,,---,0.00,VWS V14.01,2013-08-01 01:08:00,
2013-07-31 20:13:00,91.4,73.5,29.87,NNE,22,0.0,0.0,56,0.00,,---,0.00,VWS V14.01,2013-08-01 01:13:00,
2013-07-31 20:18:00,91.0,77.1,29.87,NNE,22,0.0,0.0,64,0.00,,---,0.00,VWS V14.01,2013-08-01 01:18:00,
2013-07-31 20:23:00,90.2,76.8,29.87,NNE,22,0.0,0.0,65,0.00,,---,0.00,VWS V14.01,2013-08-01 01:23:00,
2013-07-31 20:28:00,89.6,73.9,29.87,NNE,22,0.0,0.0,60,0.00,,---,0.00,VWS V14.01,2013-08-01 01:28:00,
2013-07-31 20:33:00,89.6,72.4,29.87,NNE,22,0.0,0.0,57,0.00,,---,0.00,VWS V14.01,2013-08-01 01:33:00,
2013-07-31 20:38:00,89.7,73.5,29.87,NNE,22,0.0,0.0,59,0.00,,---,0.00,VWS V14.01,2013-08-01 01:38:00,
2013-07-31 20:43:00,89.7,76.4,29.87,NNE,22,0.0,0.0,65,0.00,,---,0.00,VWS V14.01,2013-08-01 01:43:00,
2013-07-31 20:48:00,89.2,75.9,29.87,NNE,22,0.0,0.0,65,0.00,,---,0.00,VWS V14.01,2013-08-01 01:48:00,
2013-07-31 20:53:00,88.5,75.2,29.87,NNE,22,0.0,0.0,65,0.00,,---,0.00,VWS V14.01,2013-08-01 01:53:00,
2013-07-31 20:58:00,88.0,75.7,29.88,NNE,22,0.0,0.0,67,0.00,,---,0.00,VWS V14.01,2013-08-01 01:58:00,
2013-07-31 21:03:00,87.6,75.3,29.88,NNE,22,0.0,1.0,67,0.00,,---,0.00,VWS V14.01,2013-08-01 02:03:00,
2013-07-31 21:08:00,87.3,76.3,29.88,NNE,22,0.0,0.0,70,0.00,,---,0.00,VWS V14.01,2013-08-01 02:08:00,
2013-07-31 21:13:00,86.8,73.2,29.88,NNE,19,1.0,3.0,64,0.00,,---,0.00,VWS V14.01,2013-08-01 02:13:00,
2013-07-31 21:19:00,87.4,73.3,29.88,NNE,24,0.0,6.0,63,0.00,,---,0.00,VWS V14.01,2013-08-01 02:19:00,
2013-07-31 21:24:00,88.3,73.6,29.88,NNE,17,1.0,3.0,62,0.00,,---,0.00,VWS V14.01,2013-08-01 02:24:00,
2013-07-31 21:29:00,88.9,74.2,29.89,NNE,17,0.0,2.0,62,0.00,,---,0.00,VWS V14.01,2013-08-01 02:29:00,
2013-07-31 21:34:00,89.3,74.1,29.89,NNE,17,0.0,1.0,61,0.00,,---,0.00,VWS V14.01,2013-08-01 02:34:00,
2013-07-31 21:39:00,89.3,74.6,29.89,NNE,17,0.0,2.0,62,0.00,,---,0.00,VWS V14.01,2013-08-01 02:39:00,
2013-07-31 21:44:00,89.2,74.5,29.89,NNE,17,1.0,2.0,62,0.00,,---,0.00,VWS V14.01,2013-08-01 02:44:00,
2013-07-31 21:49:00,89.0,74.8,29.89,NNE,17,0.0,1.0,63,0.00,,---,0.00,VWS V14.01,2013-08-01 02:49:00,
2013-07-31 21:54:00,88.8,74.6,29.89,NNE,17,0.0,0.0,63,0.00,,---,0.00,VWS V14.01,2013-08-01 02:54:00,
2013-07-31 21:59:00,88.4,74.7,29.89,NNE,17,0.0,0.0,64,0.00,,---,0.00,VWS V14.01,2013-08-01 02:59:00,
2013-07-31 22:04:00,87.9,74.7,29.89,NNE,12,0.0,6.0,65,0.00,,---,0.00,VWS V14.01,2013-08-01 03:04:00,
2013-07-31 22:09:00,87.9,74.7,29.89,NNE,12,1.0,3.0,65,0.00,,---,0.00,VWS V14.01,2013-08-01 03:09:00,
2013-07-31 22:15:00,87.8,74.6,29.89,NNE,12,2.0,3.0,65,0.00,,---,0.00,VWS V14.01,2013-08-01 03:15:00,
2013-07-31 22:20:00,87.9,74.7,29.89,NNE,12,2.0,3.0,65,0.00,,---,0.00,VWS V14.01,2013-08-01 03:20:00,
2013-07-31 22:25:00,87.5,74.8,29.90,SE,131,4.0,5.0,66,0.00,,---,0.00,VWS V14.01,2013-08-01 03:25:00,
2013-07-31 22:30:00,87.5,75.6,29.90,ESE,109,3.0,5.0,68,0.00,,---,0.00,VWS V14.01,2013-08-01 03:30:00,
2013-07-31 22:35:00,87.5,75.2,29.90,East,94,0.0,2.0,67,0.00,,---,0.00,VWS V14.01,2013-08-01 03:35:00,
2013-07-31 22:40:00,87.6,75.3,29.90,East,94,0.0,0.0,67,0.00,,---,0.00,VWS V14.01,2013-08-01 03:40:00,
2013-07-31 22:45:00,88.3,74.6,29.90,East,94,0.0,1.0,64,0.00,,---,0.00,VWS V14.01,2013-08-01 03:45:00,
2013-07-31 22:50:00,88.3,74.1,29.90,East,94,0.0,0.0,63,0.00,,---,0.00,VWS V14.01,2013-08-01 03:50:00,
2013-07-31 22:55:00,88.2,74.0,29.90,East,94,0.0,0.0,63,0.00,,---,0.00,VWS V14.01,2013-08-01 03:55:00,
2013-07-31 23:00:00,88.2,74.5,29.91,East,94,0.0,0.0,64,0.00,,---,0.00,VWS V14.01,2013-08-01 04:00:00,
2013-07-31 23:01:00,88.3,74.6,29.91,East,94,0.0,0.0,64,0.00,,---,0.00,VWS V14.01,2013-08-01 04:01:00,
2013-07-31 23:02:00,88.3,75.1,29.91,East,94,0.0,0.0,65,0.00,,---,0.00,VWS V14.01,2013-08-01 04:02:00,
2013-07-31 23:04:00,88.1,74.4,29.91,East,94,0.0,0.0,64,0.00,,---,0.00,VWS V14.01,2013-08-01 04:04:00,
2013-07-31 23:09:00,87.4,75.1,29.91,East,94,0.0,0.0,67,0.00,,---,0.00,VWS V14.01,2013-08-01 04:09:00,
2013-07-31 23:14:00,86.6,74.3,29.91,East,94,0.0,1.0,67,0.00,,---,0.00,VWS V14.01,2013-08-01 04:14:00,
2013-07-31 23:19:00,86.4,73.7,29.91,East,94,1.0,1.0,66,0.00,,---,0.00,VWS V14.01,2013-08-01 04:19:00,
2013-07-31 23:24:00,85.9,74.1,29.92,East,94,0.0,1.0,68,0.00,,---,0.00,VWS V14.01,2013-08-01 04:24:00,
2013-07-31 23:29:00,85.4,73.2,29.92,East,94,1.0,3.0,67,0.00,,---,0.00,VWS V14.01,2013-08-01 04:29:00,
2013-07-31 23:34:00,85.4,74.1,29.92,East,94,0.0,1.0,69,0.00,,---,0.00,VWS V14.01,2013-08-01 04:34:00,
2013-07-31 23:39:00,85.1,73.4,29.91,East,94,0.0,1.0,68,0.00,,---,0.00,VWS V14.01,2013-08-01 04:39:00,
2013-07-31 23:44:00,85.2,73.9,29.92,East,94,0.0,0.0,69,0.00,,---,0.00,VWS V14.01,2013-08-01 04:44:00,
2013-07-31 23:49:00,85.2,73.4,29.92,East,94,0.0,0.0,68,0.00,,---,0.00,VWS V14.01,2013-08-01 04:49:00,
2013-07-31 23:54:00,85.1,73.8,29.92,East,94,0.0,0.0,69,0.00,,---,0.00,VWS V14.01,2013-08-01 04:54:00,